Rijeka, Croatia

01:12 PM CEST am 26. März 2017 (GMT +0200)
Ruzic selo | | Change Station

Höhe 1175 ft 45.28 °N, 14.61 °E | Updated 1 second ago

Teils Wolkig
Teils Wolkig
47.3 °F
gefühlte 40 °F
N
18.4
Wind Wechselnd Wind aus Nord
Gusts 18.4 mph

Heute
Max. -- | schwach -- °F
--% Regenrisiko
Gestern
Max. -- | schwach -- °F
Precip. -- inch
Druck 30.04 inch
Sichtweite 6.2 Meilen
Wolken Wolkig 4000 ft
Windchill 40 °F
Taupunkt 30 °F
Feuchtigkeit 51%
Regen 0.00 inch
Schneehöhe Nicht verfügbar..
6:53 AM 7:21 PM
Letztes Viertel, 4% visible
METAR LDLO 261100Z 32009KT 9999 -RA BKN040 12/07 Q1017
Druck 30.04 inch
Sichtweite 6.2 Meilen
Wolken Wolkig 4000 ft
Windchill 40 °F
Taupunkt 30 °F
Feuchtigkeit 51%
Regen 0.00 inch
Schneehöhe Nicht verfügbar..
6:53 AM 7:21 PM
Letztes Viertel, 4% visible
METAR LDLO 261100Z 32009KT 9999 -RA BKN040 12/07 Q1017

Get Severe Weather Alerts

Thanks for signing up!

Be on the lookout for a verification email in your inbox.

You'll start receiving the daily forecast at 8 AM.

×

10-Day Weather Forecast

×

Almanac

Astronomie

Mar. 26, 2017 Aufgang Untergang
Genaue Zeit
Bürgerliche Dämmerung
Nautische Dämmerung
Astronomische Dämmerung
Mond
Länge des sichtbaren Lichts
Tageslänge
Tomorrow will be .
, % of the Moon is Illuminated

Heutige Rekorde

Country Highs Country Lows

Community

WunderPhotos

Upload Photos

1,962,540 Fotos hochgeladen!

WunderBlog® & News

Nearby

Luftqualität

  Luftqualität LQ Index Schadstoff
Not available.

Schneehöhe

Station Depth Höhe

Erdbebenaktivität

Stadt Distance Mag. Time & Date
Minimum magnitude displayed is 2.5.

Erdbebenaktivität

Stadt Distance Mag. Time & Date
Minimum magnitude displayed is 2.5.

küstennahe Wassertemperaturen

Ort Temperatur

Stations

Wetterstationen in der Umgebung

Stationsstandort Temp. Windchill Taupunkt Feuchtigkeit Wind Precip. Höhe Aktualisiert Art